Terminal Aerodrome Forecast
Issued by NWS

Home | Current Version | Previous Version | Text Only | Print | Product List | Glossary On
Versions: 1 2 3 4 5 6 7 8 9 10 11 12 13 14 15 16 17 18 19 20 21 22 23 24 25 26 27 28 29
000
FTUS41 KPBZ 282100 AAA
TAFFKL
TAF AMD
KFKL 282133Z 2822/2918 24008KT P6SM SCT025 BKN035
      TEMPO 2823/2902 4SM -SHSN BKN025
     FM290600 17005KT 5SM -SN BKN015
     FM291200 16007KT P6SM OVC050
      AMD LTD TO CLD VIS AND WIND=

USA.gov is the U.S. government's official web portal to all federal, state and local government web resources and services.